sensor_id;sensor_type;location;lat;lon;timestamp;P1;durP1;ratioP1;P2;durP2;ratioP2
51048;SDS011;37084;55.228;36.450;2022-08-19T00:01:41;16.05;;;12.18;;
51048;SDS011;37084;55.228;36.450;2022-08-19T00:04:44;17.42;;;11.77;;
51048;SDS011;37084;55.228;36.450;2022-08-19T00:10:49;18.08;;;12.52;;
51048;SDS011;37084;55.228;36.450;2022-08-19T00:13:51;17.60;;;12.70;;
51048;SDS011;37084;55.228;36.450;2022-08-19T00:16:52;19.38;;;12.70;;
51048;SDS011;37084;55.228;36.450;2022-08-19T00:19:54;16.25;;;11.98;;
51048;SDS011;37084;55.228;36.450;2022-08-19T00:22:56;16.58;;;11.70;;
51048;SDS011;37084;55.228;36.450;2022-08-19T00:25:57;16.83;;;12.30;;
51048;SDS011;37084;55.228;36.450;2022-08-19T00:28:59;15.35;;;10.55;;
51048;SDS011;37084;55.228;36.450;2022-08-19T00:32:01;17.25;;;12.38;;
51048;SDS011;37084;55.228;36.450;2022-08-19T00:35:03;15.05;;;11.90;;
51048;SDS011;37084;55.228;36.450;2022-08-19T00:38:04;16.73;;;10.55;;
51048;SDS011;37084;55.228;36.450;2022-08-19T00:41:07;15.45;;;11.27;;
51048;SDS011;37084;55.228;36.450;2022-08-19T00:44:10;18.33;;;11.05;;
51048;SDS011;37084;55.228;36.450;2022-08-19T00:47:14;16.25;;;11.30;;
51048;SDS011;37084;55.228;36.450;2022-08-19T00:50:17;18.67;;;10.73;;
51048;SDS011;37084;55.228;36.450;2022-08-19T00:53:24;15.73;;;10.98;;
51048;SDS011;37084;55.228;36.450;2022-08-19T00:56:28;18.23;;;11.77;;
51048;SDS011;37084;55.228;36.450;2022-08-19T00:59:31;17.55;;;12.18;;
51048;SDS011;37084;55.228;36.450;2022-08-19T01:02:32;16.05;;;11.52;;
51048;SDS011;37084;55.228;36.450;2022-08-19T01:05:34;16.88;;;12.02;;
51048;SDS011;37084;55.228;36.450;2022-08-19T01:08:36;16.23;;;11.63;;
51048;SDS011;37084;55.228;36.450;2022-08-19T01:11:38;16.02;;;10.27;;
51048;SDS011;37084;55.228;36.450;2022-08-19T01:14:41;15.18;;;9.85;;
51048;SDS011;37084;55.228;36.450;2022-08-19T01:17:43;16.60;;;10.60;;
51048;SDS011;37084;55.228;36.450;2022-08-19T01:20:45;15.13;;;10.75;;
51048;SDS011;37084;55.228;36.450;2022-08-19T01:23:48;17.20;;;12.15;;
51048;SDS011;37084;55.228;36.450;2022-08-19T01:26:49;16.27;;;11.32;;
51048;SDS011;37084;55.228;36.450;2022-08-19T01:29:50;21.02;;;11.60;;
51048;SDS011;37084;55.228;36.450;2022-08-19T01:32:52;14.63;;;10.40;;
51048;SDS011;37084;55.228;36.450;2022-08-19T01:35:54;15.98;;;11.02;;
51048;SDS011;37084;55.228;36.450;2022-08-19T01:39:10;14.45;;;10.65;;
51048;SDS011;37084;55.228;36.450;2022-08-19T01:42:13;14.85;;;10.25;;
51048;SDS011;37084;55.228;36.450;2022-08-19T01:45:14;14.07;;;10.32;;
51048;SDS011;37084;55.228;36.450;2022-08-19T01:48:15;14.20;;;10.30;;
51048;SDS011;37084;55.228;36.450;2022-08-19T01:51:17;15.13;;;11.30;;
51048;SDS011;37084;55.228;36.450;2022-08-19T01:54:19;14.52;;;10.13;;
51048;SDS011;37084;55.228;36.450;2022-08-19T01:57:21;14.00;;;9.43;;
51048;SDS011;37084;55.228;36.450;2022-08-19T02:00:23;17.42;;;10.90;;
51048;SDS011;37084;55.228;36.450;2022-08-19T02:03:25;14.43;;;10.68;;
51048;SDS011;37084;55.228;36.450;2022-08-19T02:06:27;15.77;;;10.63;;
51048;SDS011;37084;55.228;36.450;2022-08-19T02:09:30;15.40;;;10.20;;
51048;SDS011;37084;55.228;36.450;2022-08-19T02:12:32;16.63;;;10.43;;
51048;SDS011;37084;55.228;36.450;2022-08-19T02:15:33;14.55;;;10.38;;
51048;SDS011;37084;55.228;36.450;2022-08-19T02:18:34;14.80;;;9.52;;
51048;SDS011;37084;55.228;36.450;2022-08-19T02:21:36;13.88;;;10.75;;
51048;SDS011;37084;55.228;36.450;2022-08-19T02:24:38;14.32;;;10.48;;
51048;SDS011;37084;55.228;36.450;2022-08-19T02:27:39;16.73;;;9.32;;
51048;SDS011;37084;55.228;36.450;2022-08-19T02:30:41;16.80;;;9.82;;
51048;SDS011;37084;55.228;36.450;2022-08-19T02:33:43;15.55;;;10.23;;
51048;SDS011;37084;55.228;36.450;2022-08-19T02:36:45;13.45;;;8.27;;
51048;SDS011;37084;55.228;36.450;2022-08-19T02:39:46;13.40;;;9.55;;
51048;SDS011;37084;55.228;36.450;2022-08-19T02:42:47;14.68;;;10.02;;
51048;SDS011;37084;55.228;36.450;2022-08-19T02:45:49;14.27;;;8.57;;
51048;SDS011;37084;55.228;36.450;2022-08-19T02:48:52;13.07;;;9.98;;
51048;SDS011;37084;55.228;36.450;2022-08-19T02:51:57;14.52;;;9.73;;
51048;SDS011;37084;55.228;36.450;2022-08-19T02:54:58;12.63;;;9.30;;
51048;SDS011;37084;55.228;36.450;2022-08-19T02:58:00;12.95;;;8.70;;
51048;SDS011;37084;55.228;36.450;2022-08-19T03:01:02;13.45;;;9.45;;
51048;SDS011;37084;55.228;36.450;2022-08-19T03:04:05;12.45;;;8.65;;
51048;SDS011;37084;55.228;36.450;2022-08-19T03:07:06;12.02;;;9.13;;
51048;SDS011;37084;55.228;36.450;2022-08-19T03:10:08;11.35;;;9.23;;
51048;SDS011;37084;55.228;36.450;2022-08-19T03:13:11;11.90;;;8.88;;
51048;SDS011;37084;55.228;36.450;2022-08-19T03:16:13;14.65;;;8.70;;
51048;SDS011;37084;55.228;36.450;2022-08-19T03:19:16;16.40;;;11.48;;
51048;SDS011;37084;55.228;36.450;2022-08-19T03:22:18;15.98;;;10.35;;
51048;SDS011;37084;55.228;36.450;2022-08-19T03:25:19;12.10;;;9.10;;
51048;SDS011;37084;55.228;36.450;2022-08-19T03:28:21;11.85;;;9.57;;
51048;SDS011;37084;55.228;36.450;2022-08-19T03:31:23;11.80;;;8.43;;
51048;SDS011;37084;55.228;36.450;2022-08-19T03:34:25;11.02;;;9.10;;
51048;SDS011;37084;55.228;36.450;2022-08-19T03:37:28;13.25;;;9.38;;
51048;SDS011;37084;55.228;36.450;2022-08-19T03:40:29;13.10;;;8.13;;
51048;SDS011;37084;55.228;36.450;2022-08-19T03:43:31;14.25;;;10.50;;
51048;SDS011;37084;55.228;36.450;2022-08-19T03:46:34;12.90;;;9.18;;
51048;SDS011;37084;55.228;36.450;2022-08-19T03:49:36;12.77;;;8.98;;
51048;SDS011;37084;55.228;36.450;2022-08-19T03:52:38;15.90;;;10.20;;
51048;SDS011;37084;55.228;36.450;2022-08-19T03:55:40;14.43;;;10.20;;
51048;SDS011;37084;55.228;36.450;2022-08-19T03:58:42;13.50;;;10.25;;
51048;SDS011;37084;55.228;36.450;2022-08-19T04:01:43;19.27;;;11.40;;
51048;SDS011;37084;55.228;36.450;2022-08-19T04:04:45;15.25;;;10.90;;
51048;SDS011;37084;55.228;36.450;2022-08-19T04:07:46;15.55;;;11.27;;
51048;SDS011;37084;55.228;36.450;2022-08-19T04:10:48;19.40;;;10.90;;
51048;SDS011;37084;55.228;36.450;2022-08-19T04:13:50;16.05;;;11.75;;
51048;SDS011;37084;55.228;36.450;2022-08-19T04:16:53;13.80;;;11.52;;
51048;SDS011;37084;55.228;36.450;2022-08-19T04:19:54;19.45;;;12.05;;
51048;SDS011;37084;55.228;36.450;2022-08-19T04:22:56;17.90;;;12.13;;
51048;SDS011;37084;55.228;36.450;2022-08-19T04:25:58;17.05;;;11.30;;
51048;SDS011;37084;55.228;36.450;2022-08-19T04:29:04;16.48;;;12.35;;
51048;SDS011;37084;55.228;36.450;2022-08-19T04:32:07;17.92;;;11.85;;
51048;SDS011;37084;55.228;36.450;2022-08-19T04:35:09;26.00;;;13.52;;
51048;SDS011;37084;55.228;36.450;2022-08-19T04:38:11;18.38;;;12.93;;
51048;SDS011;37084;55.228;36.450;2022-08-19T04:41:12;18.90;;;11.00;;
51048;SDS011;37084;55.228;36.450;2022-08-19T04:44:33;17.92;;;12.68;;
51048;SDS011;37084;55.228;36.450;2022-08-19T04:47:39;16.48;;;11.05;;
51048;SDS011;37084;55.228;36.450;2022-08-19T04:50:42;17.17;;;10.93;;
51048;SDS011;37084;55.228;36.450;2022-08-19T04:53:44;16.70;;;9.32;;
51048;SDS011;37084;55.228;36.450;2022-08-19T04:56:45;15.45;;;9.57;;
51048;SDS011;37084;55.228;36.450;2022-08-19T04:59:47;14.57;;;9.00;;
51048;SDS011;37084;55.228;36.450;2022-08-19T05:02:48;13.30;;;8.88;;
51048;SDS011;37084;55.228;36.450;2022-08-19T05:05:50;14.48;;;9.20;;
51048;SDS011;37084;55.228;36.450;2022-08-19T05:08:51;12.57;;;10.00;;
51048;SDS011;37084;55.228;36.450;2022-08-19T05:11:53;13.55;;;9.10;;
51048;SDS011;37084;55.228;36.450;2022-08-19T05:14:54;14.13;;;8.75;;
51048;SDS011;37084;55.228;36.450;2022-08-19T05:17:57;16.13;;;9.55;;
51048;SDS011;37084;55.228;36.450;2022-08-19T05:21:17;14.82;;;9.57;;
51048;SDS011;37084;55.228;36.450;2022-08-19T05:24:38;12.52;;;8.88;;
51048;SDS011;37084;55.228;36.450;2022-08-19T05:27:39;9.75;;;8.75;;
51048;SDS011;37084;55.228;36.450;2022-08-19T05:30:41;12.43;;;8.93;;
51048;SDS011;37084;55.228;36.450;2022-08-19T05:33:45;11.95;;;7.53;;
51048;SDS011;37084;55.228;36.450;2022-08-19T05:36:47;12.45;;;8.65;;
51048;SDS011;37084;55.228;36.450;2022-08-19T05:39:50;14.73;;;9.75;;
51048;SDS011;37084;55.228;36.450;2022-08-19T05:42:51;15.27;;;9.30;;
51048;SDS011;37084;55.228;36.450;2022-08-19T05:45:53;15.30;;;11.35;;
51048;SDS011;37084;55.228;36.450;2022-08-19T05:48:55;17.50;;;10.40;;
51048;SDS011;37084;55.228;36.450;2022-08-19T05:51:57;16.20;;;10.65;;
51048;SDS011;37084;55.228;36.450;2022-08-19T05:54:59;16.52;;;11.00;;
51048;SDS011;37084;55.228;36.450;2022-08-19T05:58:01;18.15;;;12.82;;
51048;SDS011;37084;55.228;36.450;2022-08-19T06:01:03;15.02;;;11.77;;
51048;SDS011;37084;55.228;36.450;2022-08-19T06:07:07;16.98;;;13.25;;
51048;SDS011;37084;55.228;36.450;2022-08-19T06:10:09;19.88;;;13.48;;
51048;SDS011;37084;55.228;36.450;2022-08-19T06:13:12;18.08;;;12.98;;
51048;SDS011;37084;55.228;36.450;2022-08-19T06:16:13;19.05;;;13.23;;
51048;SDS011;37084;55.228;36.450;2022-08-19T06:19:22;18.90;;;11.93;;
51048;SDS011;37084;55.228;36.450;2022-08-19T06:22:24;14.65;;;11.20;;
51048;SDS011;37084;55.228;36.450;2022-08-19T06:25:26;16.63;;;9.23;;
51048;SDS011;37084;55.228;36.450;2022-08-19T06:28:27;11.07;;;7.90;;
51048;SDS011;37084;55.228;36.450;2022-08-19T06:31:28;11.30;;;6.28;;
51048;SDS011;37084;55.228;36.450;2022-08-19T06:34:34;7.32;;;5.32;;
51048;SDS011;37084;55.228;36.450;2022-08-19T06:37:36;8.05;;;5.03;;
51048;SDS011;37084;55.228;36.450;2022-08-19T06:40:38;8.02;;;4.32;;
51048;SDS011;37084;55.228;36.450;2022-08-19T06:43:39;6.93;;;4.30;;
51048;SDS011;37084;55.228;36.450;2022-08-19T06:46:44;7.47;;;3.90;;
51048;SDS011;37084;55.228;36.450;2022-08-19T06:49:46;9.93;;;4.07;;
51048;SDS011;37084;55.228;36.450;2022-08-19T06:52:47;8.30;;;4.70;;
51048;SDS011;37084;55.228;36.450;2022-08-19T06:55:49;7.63;;;4.93;;
51048;SDS011;37084;55.228;36.450;2022-08-19T06:58:58;9.02;;;5.70;;
51048;SDS011;37084;55.228;36.450;2022-08-19T07:02:00;11.30;;;6.05;;
51048;SDS011;37084;55.228;36.450;2022-08-19T07:05:07;13.70;;;8.70;;
51048;SDS011;37084;55.228;36.450;2022-08-19T07:08:08;9.88;;;8.57;;
51048;SDS011;37084;55.228;36.450;2022-08-19T07:11:11;11.50;;;9.02;;
51048;SDS011;37084;55.228;36.450;2022-08-19T07:14:14;13.80;;;8.73;;
51048;SDS011;37084;55.228;36.450;2022-08-19T07:17:18;9.98;;;7.95;;
51048;SDS011;37084;55.228;36.450;2022-08-19T07:20:20;11.43;;;8.13;;
51048;SDS011;37084;55.228;36.450;2022-08-19T07:23:21;15.13;;;8.85;;
51048;SDS011;37084;55.228;36.450;2022-08-19T07:26:24;12.18;;;9.30;;
51048;SDS011;37084;55.228;36.450;2022-08-19T07:29:28;11.65;;;7.80;;
51048;SDS011;37084;55.228;36.450;2022-08-19T07:32:34;8.90;;;8.00;;
51048;SDS011;37084;55.228;36.450;2022-08-19T07:35:35;10.52;;;7.03;;
51048;SDS011;37084;55.228;36.450;2022-08-19T07:38:37;9.77;;;7.30;;
51048;SDS011;37084;55.228;36.450;2022-08-19T07:41:40;8.10;;;6.82;;
51048;SDS011;37084;55.228;36.450;2022-08-19T07:44:42;9.23;;;6.97;;
51048;SDS011;37084;55.228;36.450;2022-08-19T07:47:43;9.60;;;5.95;;
51048;SDS011;37084;55.228;36.450;2022-08-19T07:50:48;10.32;;;6.40;;
51048;SDS011;37084;55.228;36.450;2022-08-19T07:53:50;12.57;;;6.45;;
51048;SDS011;37084;55.228;36.450;2022-08-19T07:56:52;10.35;;;6.13;;
51048;SDS011;37084;55.228;36.450;2022-08-19T07:59:55;11.40;;;8.25;;
51048;SDS011;37084;55.228;36.450;2022-08-19T08:02:57;16.33;;;7.18;;
51048;SDS011;37084;55.228;36.450;2022-08-19T08:05:59;9.07;;;6.80;;
51048;SDS011;37084;55.228;36.450;2022-08-19T08:09:29;10.50;;;6.40;;
51048;SDS011;37084;55.228;36.450;2022-08-19T08:12:35;9.23;;;6.47;;
51048;SDS011;37084;55.228;36.450;2022-08-19T08:15:43;7.72;;;6.22;;
51048;SDS011;37084;55.228;36.450;2022-08-19T08:18:45;8.05;;;6.63;;
51048;SDS011;37084;55.228;36.450;2022-08-19T08:21:48;8.93;;;7.10;;
51048;SDS011;37084;55.228;36.450;2022-08-19T08:24:51;9.68;;;6.78;;
51048;SDS011;37084;55.228;36.450;2022-08-19T08:27:54;8.75;;;6.60;;
51048;SDS011;37084;55.228;36.450;2022-08-19T08:30:57;9.73;;;6.30;;
51048;SDS011;37084;55.228;36.450;2022-08-19T08:33:58;7.45;;;5.28;;
51048;SDS011;37084;55.228;36.450;2022-08-19T08:36:59;8.20;;;5.18;;
51048;SDS011;37084;55.228;36.450;2022-08-19T08:40:03;8.98;;;5.35;;
51048;SDS011;37084;55.228;36.450;2022-08-19T08:43:37;7.30;;;3.60;;
51048;SDS011;37084;55.228;36.450;2022-08-19T08:46:42;4.72;;;4.18;;
51048;SDS011;37084;55.228;36.450;2022-08-19T08:49:50;7.25;;;4.63;;
51048;SDS011;37084;55.228;36.450;2022-08-19T08:52:56;11.07;;;4.85;;
51048;SDS011;37084;55.228;36.450;2022-08-19T08:55:58;7.35;;;4.63;;
51048;SDS011;37084;55.228;36.450;2022-08-19T08:59:10;8.07;;;5.05;;
51048;SDS011;37084;55.228;36.450;2022-08-19T09:02:21;6.07;;;4.65;;
51048;SDS011;37084;55.228;36.450;2022-08-19T09:05:23;7.93;;;4.13;;
51048;SDS011;37084;55.228;36.450;2022-08-19T09:18:04;4.85;;;4.32;;
51048;SDS011;37084;55.228;36.450;2022-08-19T09:21:08;7.97;;;4.28;;
51048;SDS011;37084;55.228;36.450;2022-08-19T09:24:12;10.35;;;4.60;;
51048;SDS011;37084;55.228;36.450;2022-08-19T09:27:13;5.78;;;4.20;;
51048;SDS011;37084;55.228;36.450;2022-08-19T09:30:19;9.20;;;4.65;;
51048;SDS011;37084;55.228;36.450;2022-08-19T09:33:24;6.43;;;4.38;;
51048;SDS011;37084;55.228;36.450;2022-08-19T09:36:26;6.25;;;3.80;;
51048;SDS011;37084;55.228;36.450;2022-08-19T09:39:35;8.65;;;4.47;;
51048;SDS011;37084;55.228;36.450;2022-08-19T09:42:44;6.95;;;4.10;;
51048;SDS011;37084;55.228;36.450;2022-08-19T09:45:47;8.38;;;4.28;;
51048;SDS011;37084;55.228;36.450;2022-08-19T09:48:50;7.00;;;4.15;;
51048;SDS011;37084;55.228;36.450;2022-08-19T09:51:52;8.15;;;5.43;;
51048;SDS011;37084;55.228;36.450;2022-08-19T09:54:58;7.03;;;4.35;;
51048;SDS011;37084;55.228;36.450;2022-08-19T09:58:00;8.05;;;4.00;;
51048;SDS011;37084;55.228;36.450;2022-08-19T10:01:03;5.70;;;3.78;;
51048;SDS011;37084;55.228;36.450;2022-08-19T10:04:07;7.72;;;4.20;;
51048;SDS011;37084;55.228;36.450;2022-08-19T10:07:10;3.95;;;3.03;;
51048;SDS011;37084;55.228;36.450;2022-08-19T10:10:15;4.72;;;4.30;;
51048;SDS011;37084;55.228;36.450;2022-08-19T10:13:19;5.82;;;4.28;;
51048;SDS011;37084;55.228;36.450;2022-08-19T10:16:26;7.05;;;4.40;;
51048;SDS011;37084;55.228;36.450;2022-08-19T10:19:27;5.57;;;3.80;;
51048;SDS011;37084;55.228;36.450;2022-08-19T10:22:36;6.88;;;3.90;;
51048;SDS011;37084;55.228;36.450;2022-08-19T10:25:39;7.28;;;5.45;;
51048;SDS011;37084;55.228;36.450;2022-08-19T10:28:40;8.00;;;4.28;;
51048;SDS011;37084;55.228;36.450;2022-08-19T10:31:43;5.65;;;4.13;;
51048;SDS011;37084;55.228;36.450;2022-08-19T10:34:45;8.25;;;3.83;;
51048;SDS011;37084;55.228;36.450;2022-08-19T10:37:47;11.38;;;4.07;;
51048;SDS011;37084;55.228;36.450;2022-08-19T10:40:50;5.63;;;3.70;;
51048;SDS011;37084;55.228;36.450;2022-08-19T10:43:51;5.00;;;3.47;;
51048;SDS011;37084;55.228;36.450;2022-08-19T10:46:56;6.57;;;3.97;;
51048;SDS011;37084;55.228;36.450;2022-08-19T10:49:59;8.27;;;4.28;;
51048;SDS011;37084;55.228;36.450;2022-08-19T10:53:19;6.88;;;4.30;;
51048;SDS011;37084;55.228;36.450;2022-08-19T10:56:26;9.38;;;3.90;;
51048;SDS011;37084;55.228;36.450;2022-08-19T10:59:47;4.80;;;3.78;;
51048;SDS011;37084;55.228;36.450;2022-08-19T11:02:48;6.35;;;4.43;;
51048;SDS011;37084;55.228;36.450;2022-08-19T11:06:01;10.20;;;4.10;;
51048;SDS011;37084;55.228;36.450;2022-08-19T11:09:07;6.72;;;4.22;;
51048;SDS011;37084;55.228;36.450;2022-08-19T11:12:09;5.63;;;4.05;;
51048;SDS011;37084;55.228;36.450;2022-08-19T11:15:11;8.57;;;4.47;;
51048;SDS011;37084;55.228;36.450;2022-08-19T11:18:12;5.10;;;4.00;;
51048;SDS011;37084;55.228;36.450;2022-08-19T11:21:16;5.68;;;3.13;;
51048;SDS011;37084;55.228;36.450;2022-08-19T11:24:24;4.07;;;3.55;;
51048;SDS011;37084;55.228;36.450;2022-08-19T11:27:29;6.78;;;3.63;;
51048;SDS011;37084;55.228;36.450;2022-08-19T11:30:31;5.10;;;3.67;;
51048;SDS011;37084;55.228;36.450;2022-08-19T11:33:34;8.38;;;3.65;;
51048;SDS011;37084;55.228;36.450;2022-08-19T11:36:37;6.15;;;3.72;;
51048;SDS011;37084;55.228;36.450;2022-08-19T11:39:40;8.32;;;3.20;;
51048;SDS011;37084;55.228;36.450;2022-08-19T11:42:42;6.20;;;3.42;;
51048;SDS011;37084;55.228;36.450;2022-08-19T11:45:58;6.70;;;3.65;;
51048;SDS011;37084;55.228;36.450;2022-08-19T11:49:00;6.60;;;3.40;;
51048;SDS011;37084;55.228;36.450;2022-08-19T11:52:03;6.15;;;2.83;;
51048;SDS011;37084;55.228;36.450;2022-08-19T11:55:05;6.35;;;3.38;;
51048;SDS011;37084;55.228;36.450;2022-08-19T11:58:07;4.28;;;2.90;;
51048;SDS011;37084;55.228;36.450;2022-08-19T12:01:09;5.35;;;2.90;;
51048;SDS011;37084;55.228;36.450;2022-08-19T12:04:12;9.13;;;5.82;;
51048;SDS011;37084;55.228;36.450;2022-08-19T12:07:14;5.35;;;4.00;;
51048;SDS011;37084;55.228;36.450;2022-08-19T12:10:15;5.30;;;3.95;;
51048;SDS011;37084;55.228;36.450;2022-08-19T12:13:17;4.68;;;3.28;;
51048;SDS011;37084;55.228;36.450;2022-08-19T12:16:20;3.90;;;2.20;;
51048;SDS011;37084;55.228;36.450;2022-08-19T12:19:24;6.22;;;2.97;;
51048;SDS011;37084;55.228;36.450;2022-08-19T12:22:26;6.93;;;3.25;;
51048;SDS011;37084;55.228;36.450;2022-08-19T12:25:29;6.15;;;2.80;;
51048;SDS011;37084;55.228;36.450;2022-08-19T12:28:32;3.65;;;3.20;;
51048;SDS011;37084;55.228;36.450;2022-08-19T12:31:35;5.70;;;3.25;;
51048;SDS011;37084;55.228;36.450;2022-08-19T12:34:36;6.05;;;3.10;;
51048;SDS011;37084;55.228;36.450;2022-08-19T12:37:38;6.40;;;3.28;;
51048;SDS011;37084;55.228;36.450;2022-08-19T12:40:48;4.97;;;3.08;;
51048;SDS011;37084;55.228;36.450;2022-08-19T12:43:49;5.88;;;3.30;;
51048;SDS011;37084;55.228;36.450;2022-08-19T12:46:52;5.63;;;3.65;;
51048;SDS011;37084;55.228;36.450;2022-08-19T12:49:53;5.82;;;3.30;;
51048;SDS011;37084;55.228;36.450;2022-08-19T12:52:55;5.50;;;3.38;;
51048;SDS011;37084;55.228;36.450;2022-08-19T12:55:58;6.93;;;4.05;;
51048;SDS011;37084;55.228;36.450;2022-08-19T12:59:01;5.85;;;3.95;;
51048;SDS011;37084;55.228;36.450;2022-08-19T13:02:04;7.60;;;4.68;;
51048;SDS011;37084;55.228;36.450;2022-08-19T13:05:07;7.95;;;4.60;;
51048;SDS011;37084;55.228;36.450;2022-08-19T13:08:10;7.22;;;4.22;;
51048;SDS011;37084;55.228;36.450;2022-08-19T13:11:14;7.30;;;4.78;;
51048;SDS011;37084;55.228;36.450;2022-08-19T13:14:19;7.00;;;4.40;;
51048;SDS011;37084;55.228;36.450;2022-08-19T13:17:22;10.50;;;5.32;;
51048;SDS011;37084;55.228;36.450;2022-08-19T13:20:23;10.93;;;5.25;;
51048;SDS011;37084;55.228;36.450;2022-08-19T13:23:26;6.63;;;5.38;;
51048;SDS011;37084;55.228;36.450;2022-08-19T13:26:27;9.52;;;5.38;;
51048;SDS011;37084;55.228;36.450;2022-08-19T13:29:29;7.60;;;5.15;;
51048;SDS011;37084;55.228;36.450;2022-08-19T13:32:51;8.95;;;5.30;;
51048;SDS011;37084;55.228;36.450;2022-08-19T13:36:11;8.13;;;6.43;;
51048;SDS011;37084;55.228;36.450;2022-08-19T13:39:13;11.50;;;6.72;;
51048;SDS011;37084;55.228;36.450;2022-08-19T13:42:14;10.85;;;8.20;;
51048;SDS011;37084;55.228;36.450;2022-08-19T13:45:19;12.65;;;8.15;;
51048;SDS011;37084;55.228;36.450;2022-08-19T13:48:23;19.48;;;13.63;;
51048;SDS011;37084;55.228;36.450;2022-08-19T13:51:27;20.88;;;15.93;;
51048;SDS011;37084;55.228;36.450;2022-08-19T13:54:28;18.58;;;15.93;;
51048;SDS011;37084;55.228;36.450;2022-08-19T13:57:31;19.20;;;15.00;;
51048;SDS011;37084;55.228;36.450;2022-08-19T14:00:36;19.15;;;15.45;;
51048;SDS011;37084;55.228;36.450;2022-08-19T14:03:42;20.38;;;16.58;;
51048;SDS011;37084;55.228;36.450;2022-08-19T14:06:46;20.08;;;15.27;;
51048;SDS011;37084;55.228;36.450;2022-08-19T14:09:51;17.63;;;15.82;;
51048;SDS011;37084;55.228;36.450;2022-08-19T14:12:53;20.45;;;16.52;;
51048;SDS011;37084;55.228;36.450;2022-08-19T14:15:57;16.77;;;13.32;;
51048;SDS011;37084;55.228;36.450;2022-08-19T14:18:59;16.48;;;13.40;;
51048;SDS011;37084;55.228;36.450;2022-08-19T14:22:00;15.60;;;13.40;;
51048;SDS011;37084;55.228;36.450;2022-08-19T14:25:03;17.17;;;13.45;;
51048;SDS011;37084;55.228;36.450;2022-08-19T14:28:06;19.40;;;12.50;;
51048;SDS011;37084;55.228;36.450;2022-08-19T14:31:09;18.48;;;13.98;;
51048;SDS011;37084;55.228;36.450;2022-08-19T14:34:18;17.33;;;12.63;;
51048;SDS011;37084;55.228;36.450;2022-08-19T14:37:20;19.02;;;15.13;;
51048;SDS011;37084;55.228;36.450;2022-08-19T14:40:24;20.23;;;14.70;;
51048;SDS011;37084;55.228;36.450;2022-08-19T14:43:27;18.63;;;13.98;;
51048;SDS011;37084;55.228;36.450;2022-08-19T14:46:28;16.02;;;13.52;;
51048;SDS011;37084;55.228;36.450;2022-08-19T14:49:30;16.00;;;13.27;;
51048;SDS011;37084;55.228;36.450;2022-08-19T14:52:31;17.33;;;13.13;;
51048;SDS011;37084;55.228;36.450;2022-08-19T14:55:39;18.88;;;14.20;;
51048;SDS011;37084;55.228;36.450;2022-08-19T14:58:43;16.55;;;14.40;;
51048;SDS011;37084;55.228;36.450;2022-08-19T15:01:45;19.83;;;14.68;;
51048;SDS011;37084;55.228;36.450;2022-08-19T15:04:46;16.42;;;13.23;;
51048;SDS011;37084;55.228;36.450;2022-08-19T15:07:50;18.77;;;14.25;;
51048;SDS011;37084;55.228;36.450;2022-08-19T15:10:58;15.30;;;13.10;;
51048;SDS011;37084;55.228;36.450;2022-08-19T15:14:00;17.60;;;14.57;;
51048;SDS011;37084;55.228;36.450;2022-08-19T15:17:02;18.73;;;13.95;;
51048;SDS011;37084;55.228;36.450;2022-08-19T15:20:04;22.38;;;14.38;;
51048;SDS011;37084;55.228;36.450;2022-08-19T15:23:07;20.48;;;15.10;;
51048;SDS011;37084;55.228;36.450;2022-08-19T15:26:11;21.95;;;15.90;;
51048;SDS011;37084;55.228;36.450;2022-08-19T15:29:14;21.35;;;15.85;;
51048;SDS011;37084;55.228;36.450;2022-08-19T15:32:17;19.17;;;15.68;;
51048;SDS011;37084;55.228;36.450;2022-08-19T15:35:22;23.38;;;19.13;;
51048;SDS011;37084;55.228;36.450;2022-08-19T15:38:25;26.30;;;19.70;;
51048;SDS011;37084;55.228;36.450;2022-08-19T15:41:30;27.00;;;20.92;;
51048;SDS011;37084;55.228;36.450;2022-08-19T15:44:34;28.77;;;25.23;;
51048;SDS011;37084;55.228;36.450;2022-08-19T15:50:40;32.90;;;26.17;;
51048;SDS011;37084;55.228;36.450;2022-08-19T15:53:45;32.95;;;27.20;;
51048;SDS011;37084;55.228;36.450;2022-08-19T15:56:48;32.53;;;26.75;;
51048;SDS011;37084;55.228;36.450;2022-08-19T16:00:10;33.85;;;26.23;;
51048;SDS011;37084;55.228;36.450;2022-08-19T16:03:30;31.50;;;26.10;;
51048;SDS011;37084;55.228;36.450;2022-08-19T16:06:51;29.42;;;25.33;;
51048;SDS011;37084;55.228;36.450;2022-08-19T16:09:54;29.77;;;24.40;;
51048;SDS011;37084;55.228;36.450;2022-08-19T16:12:55;29.92;;;22.63;;
51048;SDS011;37084;55.228;36.450;2022-08-19T16:16:01;23.80;;;21.30;;
51048;SDS011;37084;55.228;36.450;2022-08-19T16:19:04;25.38;;;20.40;;
51048;SDS011;37084;55.228;36.450;2022-08-19T16:22:07;25.80;;;19.85;;
51048;SDS011;37084;55.228;36.450;2022-08-19T16:25:09;26.95;;;18.42;;
51048;SDS011;37084;55.228;36.450;2022-08-19T16:28:11;25.17;;;20.50;;
51048;SDS011;37084;55.228;36.450;2022-08-19T16:31:14;24.10;;;20.48;;
51048;SDS011;37084;55.228;36.450;2022-08-19T16:34:16;25.83;;;20.25;;
51048;SDS011;37084;55.228;36.450;2022-08-19T16:37:17;26.08;;;20.35;;
51048;SDS011;37084;55.228;36.450;2022-08-19T16:40:21;23.35;;;19.35;;
51048;SDS011;37084;55.228;36.450;2022-08-19T16:43:23;23.85;;;19.33;;
51048;SDS011;37084;55.228;36.450;2022-08-19T16:46:26;25.27;;;19.58;;
51048;SDS011;37084;55.228;36.450;2022-08-19T16:49:28;24.70;;;19.13;;
51048;SDS011;37084;55.228;36.450;2022-08-19T16:52:30;20.92;;;15.90;;
51048;SDS011;37084;55.228;36.450;2022-08-19T16:55:33;20.45;;;18.30;;
51048;SDS011;37084;55.228;36.450;2022-08-19T16:58:41;22.52;;;17.65;;
51048;SDS011;37084;55.228;36.450;2022-08-19T17:01:42;22.15;;;16.92;;
51048;SDS011;37084;55.228;36.450;2022-08-19T17:04:45;20.27;;;15.00;;
51048;SDS011;37084;55.228;36.450;2022-08-19T17:10:52;19.77;;;15.50;;
51048;SDS011;37084;55.228;36.450;2022-08-19T17:13:55;21.88;;;15.90;;
51048;SDS011;37084;55.228;36.450;2022-08-19T17:16:58;17.88;;;15.85;;
51048;SDS011;37084;55.228;36.450;2022-08-19T17:20:00;18.00;;;14.15;;
51048;SDS011;37084;55.228;36.450;2022-08-19T17:23:03;17.90;;;13.15;;
51048;SDS011;37084;55.228;36.450;2022-08-19T17:26:05;16.73;;;13.38;;
51048;SDS011;37084;55.228;36.450;2022-08-19T17:29:06;17.60;;;12.77;;
51048;SDS011;37084;55.228;36.450;2022-08-19T17:32:09;16.08;;;11.63;;
51048;SDS011;37084;55.228;36.450;2022-08-19T17:35:12;14.52;;;11.77;;
51048;SDS011;37084;55.228;36.450;2022-08-19T17:38:22;15.38;;;9.63;;
51048;SDS011;37084;55.228;36.450;2022-08-19T17:41:24;11.77;;;10.25;;
51048;SDS011;37084;55.228;36.450;2022-08-19T17:44:26;11.57;;;10.10;;
51048;SDS011;37084;55.228;36.450;2022-08-19T17:47:33;12.85;;;9.82;;
51048;SDS011;37084;55.228;36.450;2022-08-19T17:50:37;11.57;;;9.80;;
51048;SDS011;37084;55.228;36.450;2022-08-19T17:53:42;15.45;;;9.60;;
51048;SDS011;37084;55.228;36.450;2022-08-19T17:56:45;14.55;;;10.45;;
51048;SDS011;37084;55.228;36.450;2022-08-19T17:59:48;11.77;;;8.57;;
51048;SDS011;37084;55.228;36.450;2022-08-19T18:02:55;11.48;;;8.68;;
51048;SDS011;37084;55.228;36.450;2022-08-19T18:06:01;12.00;;;7.75;;
51048;SDS011;37084;55.228;36.450;2022-08-19T18:09:03;10.73;;;8.52;;
51048;SDS011;37084;55.228;36.450;2022-08-19T18:12:06;11.73;;;8.40;;
51048;SDS011;37084;55.228;36.450;2022-08-19T18:15:08;11.60;;;8.15;;